Brainerd, MN

10:37 PM CST on December 21, 2014 (GMT -0600)
Pine River Regional | Change Station
CLOSE
Current Station
Airport
Location: Pine River,
Elevation: 1296 ft
Nearby Weather Stations
Active Advisory: Special Statement

Elev 1296 ft 46.72 °N, 94.38 °W | Updated 23 minutes ago

Fog
Fog
34 °F
Feels Like 28 °F
N
7
Wind Variable Wind from SSE

Today
High -- | Low -- °F
--% Chance of Precip.
Yesterday
High -- | Low -- °F
Precip. -- in
7:56 AM 4:32 PM
New Moon, 0% visible
Pressure 29.68 in
Visibility 1.8 miles
Clouds Overcast 300 ft
Windchill 28 °F
Dew Point 34 °F
Humidity 100%
Rainfall 0.00 in
Snow Depth Not available.
UV 0 out of 12
Pollen .10 out of 12
Air Quality Not available.
Flu Activity Not available.
METAR KPWC 220414Z AUTO 16006KT 1 3/4SM -RA OVC003 01/01 A2968 RMK AO2

More Conditions Fewer Conditions

Pressure 29.68 in
Visibility 1.8 miles
Clouds Overcast 300 ft
Windchill 28 °F
Dew Point 34 °F
Humidity 100%
Rainfall 0.00 in
Snow Depth Not available.
UV 0 out of 12
Pollen .10 out of 12
Air Quality Not available.
Flu Activity Not available.
METAR KPWC 220414Z AUTO 16006KT 1 3/4SM -RA OVC003 01/01 A2968 RMK AO2

More Conditions Fewer Conditions

10-Day Weather Forecast

Almanac

Astronomy

Dec. 21, 2014 Rise Set
Actual Time
Civil Twilight
Nautical Twilight
Astronomical Twilight
Moon
Length of Visible Light
Length of Day
Tomorrow will be .
, % of the Moon is Illuminated

Today's Extremes

State Highs State Lows

Community

WunderPhotos

Upload Photos

1,779,540 photos uploaded!

WunderBlogs® & News

Nearby

Air Quality

  Air Quality AQ Index Pollutant
Not available.

Snow Depth

Station Depth Elevation

Earthquake Activity

City Distance Mag. Time & Date
Minimum magnitude displayed is 2.5.

Coastal Water Temperatures

Place Temperature

Nearby Weather Stations